Nur fliegen ist schöner ....

Willkommen beim Flugservice Bautzen GmbH

 Wir sind eine nach europäischen Richtlinien zugelassene Flugschule und lizenziertes Luftfahrtunternehmen. Bei uns können sie nicht nur Rundflüge über die Oberlausitz oder Sachsen buchen, sondern in unserer Flugschule selber das Fliegen erlernen. Erfahrene Fluglehrer stehen Ihnen dabei zur Seite.

Wir bieten Ihnen außerdem spezielle Flüge zur Vermessung oder Fotoflüge für Luftbildaufnahmen an. In Zusammenarbeit mit dem Fallschirmsportclub Dresden und dem Cottbuser Fallschirmsportclub setzen wir am Flugplatz Bautzen und Neuhausen Fallschirmspringer ab.
Schauen Sie sich in Ruhe bei uns um und wenn Sie Fragen haben oder weitere Informationen benötigen, scheuen Sie sich nicht Kontakt mit uns aufzunehmen.

Gutscheine für Rundflüge und Tandemsprünge können Sie ganz leicht auch online in unserem Shop erwerben.

Terminkalender

Letzter Monat März 2019 Nächster Monat
Mo Di Mi Do Fr Sa So
week 9 1 2 3
week 10 4 5 6 7 8 9 10
week 11 11 12 13 14 15 16 17
week 12 18 19 20 21 22 23 24
week 13 25 26 27 28 29 30 31

Flugwetterinfo

[Quelle: ADDS]
METAR
EDDC 232050Z 31004KT 8000 BKN037 08/05 Q1028 NOSIG =
EDDC 231700Z 2318/2418 33012KT 9999 BKN030 BECMG 2319/2322 33006KT BECMG 2322/2402 03004KT BKN012 PROB30 TEMPO 2322/2408 3500 -RADZ BKN007 BECMG 2409/2412 33005KT BKN015
TAF
EDDC 231700Z 2318/2418 33012KT 9999 BKN030 BECMG 2319/2322 33006KT BECMG 2322/2402 03004KT BKN012 PROB30 TEMPO 2322/2408 3500 -RADZ BKN007 BECMG 2409/2412 33005KT BKN015 =
SR / SS: 04:58 / 17:19 UTC (EDAB Flugplatz Bautzen 2019-03-23)
ÖFFNUNGSZEITEN des Flugplatzes Bautzen erfahren Sie hier:

flugplatz bautzen logo
Flugservice Bautzen GmbH, Kornmarkt 34, 02625 Bautzen  Telefon: +49 (3591) 211105, Telefax: +49 (3591) 274512, E-Mail:  flugservice(at)fsbautzen.de